sensor_id;sensor_type;location;lat;lon;timestamp;P1;durP1;ratioP1;P2;durP2;ratioP2
26269;SDS011;15937;50.612;6.656;2023-05-07T00:03:48;4.43;;;2.58;;
26269;SDS011;15937;50.612;6.656;2023-05-07T00:07:51;3.03;;;1.70;;
26269;SDS011;15937;50.612;6.656;2023-05-07T00:11:53;3.13;;;1.60;;
26269;SDS011;15937;50.612;6.656;2023-05-07T00:15:56;4.90;;;2.47;;
26269;SDS011;15937;50.612;6.656;2023-05-07T00:19:57;8.35;;;1.60;;
26269;SDS011;15937;50.612;6.656;2023-05-07T00:23:59;5.53;;;1.90;;
26269;SDS011;15937;50.612;6.656;2023-05-07T00:28:01;4.53;;;1.90;;
26269;SDS011;15937;50.612;6.656;2023-05-07T00:32:04;6.93;;;2.08;;
26269;SDS011;15937;50.612;6.656;2023-05-07T00:36:06;1.75;;;1.40;;
26269;SDS011;15937;50.612;6.656;2023-05-07T00:40:08;3.42;;;2.22;;
26269;SDS011;15937;50.612;6.656;2023-05-07T00:44:11;3.00;;;1.83;;
26269;SDS011;15937;50.612;6.656;2023-05-07T00:48:12;4.68;;;2.00;;
26269;SDS011;15937;50.612;6.656;2023-05-07T00:52:16;1.92;;;1.70;;
26269;SDS011;15937;50.612;6.656;2023-05-07T00:56:21;2.35;;;1.90;;
26269;SDS011;15937;50.612;6.656;2023-05-07T01:04:26;2.03;;;1.53;;
26269;SDS011;15937;50.612;6.656;2023-05-07T01:08:28;1.38;;;1.27;;
26269;SDS011;15937;50.612;6.656;2023-05-07T01:12:31;3.83;;;2.25;;
26269;SDS011;15937;50.612;6.656;2023-05-07T01:16:33;6.07;;;1.67;;
26269;SDS011;15937;50.612;6.656;2023-05-07T01:20:35;2.97;;;1.90;;
26269;SDS011;15937;50.612;6.656;2023-05-07T01:24:37;2.53;;;1.73;;
26269;SDS011;15937;50.612;6.656;2023-05-07T01:28:39;2.22;;;1.65;;
26269;SDS011;15937;50.612;6.656;2023-05-07T01:36:54;4.20;;;1.97;;
26269;SDS011;15937;50.612;6.656;2023-05-07T01:40:57;3.97;;;2.08;;
26269;SDS011;15937;50.612;6.656;2023-05-07T01:44:59;2.90;;;1.80;;
26269;SDS011;15937;50.612;6.656;2023-05-07T01:49:01;6.67;;;2.00;;
26269;SDS011;15937;50.612;6.656;2023-05-07T01:53:03;5.53;;;2.30;;
26269;SDS011;15937;50.612;6.656;2023-05-07T01:57:04;4.43;;;2.05;;
26269;SDS011;15937;50.612;6.656;2023-05-07T02:01:06;2.95;;;1.50;;
26269;SDS011;15937;50.612;6.656;2023-05-07T02:05:08;5.50;;;2.10;;
26269;SDS011;15937;50.612;6.656;2023-05-07T02:09:10;5.07;;;1.70;;
26269;SDS011;15937;50.612;6.656;2023-05-07T02:13:12;5.80;;;1.90;;
26269;SDS011;15937;50.612;6.656;2023-05-07T02:17:14;4.40;;;1.75;;
26269;SDS011;15937;50.612;6.656;2023-05-07T02:21:16;3.08;;;1.80;;
26269;SDS011;15937;50.612;6.656;2023-05-07T02:25:17;6.90;;;2.25;;
26269;SDS011;15937;50.612;6.656;2023-05-07T02:29:19;5.85;;;2.25;;
26269;SDS011;15937;50.612;6.656;2023-05-07T02:33:21;3.08;;;2.40;;
26269;SDS011;15937;50.612;6.656;2023-05-07T02:37:22;4.45;;;2.17;;
26269;SDS011;15937;50.612;6.656;2023-05-07T02:41:24;3.08;;;2.05;;
26269;SDS011;15937;50.612;6.656;2023-05-07T02:45:26;7.00;;;1.65;;
26269;SDS011;15937;50.612;6.656;2023-05-07T02:49:27;3.67;;;1.60;;
26269;SDS011;15937;50.612;6.656;2023-05-07T02:53:29;3.40;;;1.63;;
26269;SDS011;15937;50.612;6.656;2023-05-07T02:57:31;12.90;;;1.83;;
26269;SDS011;15937;50.612;6.656;2023-05-07T03:01:33;1.60;;;1.42;;
26269;SDS011;15937;50.612;6.656;2023-05-07T03:05:34;5.07;;;2.00;;
26269;SDS011;15937;50.612;6.656;2023-05-07T03:09:36;5.07;;;1.60;;
26269;SDS011;15937;50.612;6.656;2023-05-07T03:13:38;3.88;;;1.83;;
26269;SDS011;15937;50.612;6.656;2023-05-07T03:17:40;3.05;;;1.52;;
26269;SDS011;15937;50.612;6.656;2023-05-07T03:21:41;2.78;;;1.92;;
26269;SDS011;15937;50.612;6.656;2023-05-07T03:25:43;2.28;;;1.88;;
26269;SDS011;15937;50.612;6.656;2023-05-07T03:29:45;1.55;;;1.45;;
26269;SDS011;15937;50.612;6.656;2023-05-07T03:33:54;1.60;;;1.50;;
26269;SDS011;15937;50.612;6.656;2023-05-07T03:37:56;5.68;;;1.77;;
26269;SDS011;15937;50.612;6.656;2023-05-07T03:41:58;5.55;;;1.65;;
26269;SDS011;15937;50.612;6.656;2023-05-07T03:46:00;2.30;;;1.60;;
26269;SDS011;15937;50.612;6.656;2023-05-07T03:50:02;1.83;;;1.70;;
26269;SDS011;15937;50.612;6.656;2023-05-07T03:54:04;1.83;;;1.43;;
26269;SDS011;15937;50.612;6.656;2023-05-07T03:58:06;3.30;;;1.70;;
26269;SDS011;15937;50.612;6.656;2023-05-07T04:02:08;4.68;;;1.85;;
26269;SDS011;15937;50.612;6.656;2023-05-07T04:06:10;2.63;;;1.58;;
26269;SDS011;15937;50.612;6.656;2023-05-07T04:10:13;1.92;;;1.50;;
26269;SDS011;15937;50.612;6.656;2023-05-07T04:14:15;3.50;;;1.83;;
26269;SDS011;15937;50.612;6.656;2023-05-07T04:18:16;5.40;;;1.80;;
26269;SDS011;15937;50.612;6.656;2023-05-07T04:22:18;1.33;;;1.23;;
26269;SDS011;15937;50.612;6.656;2023-05-07T04:26:20;4.05;;;1.73;;
26269;SDS011;15937;50.612;6.656;2023-05-07T04:30:22;3.20;;;1.52;;
26269;SDS011;15937;50.612;6.656;2023-05-07T04:34:24;3.58;;;1.92;;
26269;SDS011;15937;50.612;6.656;2023-05-07T04:38:25;2.97;;;1.50;;
26269;SDS011;15937;50.612;6.656;2023-05-07T04:42:27;3.67;;;1.60;;
26269;SDS011;15937;50.612;6.656;2023-05-07T04:46:29;1.83;;;1.35;;
26269;SDS011;15937;50.612;6.656;2023-05-07T04:50:31;3.73;;;1.50;;
26269;SDS011;15937;50.612;6.656;2023-05-07T04:54:34;4.28;;;1.58;;
26269;SDS011;15937;50.612;6.656;2023-05-07T04:58:36;5.05;;;1.70;;
26269;SDS011;15937;50.612;6.656;2023-05-07T05:02:38;3.30;;;1.45;;
26269;SDS011;15937;50.612;6.656;2023-05-07T05:06:40;2.80;;;1.55;;
26269;SDS011;15937;50.612;6.656;2023-05-07T05:10:42;2.80;;;1.80;;
26269;SDS011;15937;50.612;6.656;2023-05-07T05:14:44;4.13;;;1.48;;
26269;SDS011;15937;50.612;6.656;2023-05-07T05:18:46;1.45;;;1.35;;
26269;SDS011;15937;50.612;6.656;2023-05-07T05:22:48;2.72;;;1.30;;
26269;SDS011;15937;50.612;6.656;2023-05-07T05:26:50;3.67;;;1.50;;
26269;SDS011;15937;50.612;6.656;2023-05-07T05:30:55;1.77;;;1.35;;
26269;SDS011;15937;50.612;6.656;2023-05-07T05:34:56;1.50;;;1.40;;
26269;SDS011;15937;50.612;6.656;2023-05-07T05:38:58;2.17;;;1.38;;
26269;SDS011;15937;50.612;6.656;2023-05-07T05:43:00;2.90;;;1.60;;
26269;SDS011;15937;50.612;6.656;2023-05-07T05:47:02;1.38;;;1.25;;
26269;SDS011;15937;50.612;6.656;2023-05-07T05:51:04;1.30;;;1.20;;
26269;SDS011;15937;50.612;6.656;2023-05-07T05:55:06;4.35;;;1.40;;
26269;SDS011;15937;50.612;6.656;2023-05-07T05:59:08;4.03;;;1.85;;
26269;SDS011;15937;50.612;6.656;2023-05-07T06:03:11;11.20;;;3.20;;
26269;SDS011;15937;50.612;6.656;2023-05-07T06:07:14;7.25;;;2.60;;
26269;SDS011;15937;50.612;6.656;2023-05-07T06:11:16;6.10;;;2.33;;
26269;SDS011;15937;50.612;6.656;2023-05-07T06:15:19;4.05;;;1.65;;
26269;SDS011;15937;50.612;6.656;2023-05-07T06:19:20;5.55;;;2.25;;
26269;SDS011;15937;50.612;6.656;2023-05-07T06:23:25;2.55;;;1.80;;
26269;SDS011;15937;50.612;6.656;2023-05-07T06:27:27;3.67;;;1.25;;
26269;SDS011;15937;50.612;6.656;2023-05-07T06:31:29;4.13;;;2.10;;
26269;SDS011;15937;50.612;6.656;2023-05-07T06:35:34;4.65;;;2.15;;
26269;SDS011;15937;50.612;6.656;2023-05-07T06:39:36;6.10;;;1.97;;
26269;SDS011;15937;50.612;6.656;2023-05-07T06:43:38;5.47;;;2.85;;
26269;SDS011;15937;50.612;6.656;2023-05-07T06:47:40;4.53;;;2.07;;
26269;SDS011;15937;50.612;6.656;2023-05-07T06:51:42;8.35;;;2.47;;
26269;SDS011;15937;50.612;6.656;2023-05-07T06:55:44;8.25;;;2.25;;
26269;SDS011;15937;50.612;6.656;2023-05-07T06:59:45;2.15;;;1.52;;
26269;SDS011;15937;50.612;6.656;2023-05-07T07:03:47;4.15;;;1.83;;
26269;SDS011;15937;50.612;6.656;2023-05-07T07:07:49;8.50;;;2.13;;
26269;SDS011;15937;50.612;6.656;2023-05-07T07:11:53;3.55;;;1.55;;
26269;SDS011;15937;50.612;6.656;2023-05-07T07:15:59;1.90;;;1.70;;
26269;SDS011;15937;50.612;6.656;2023-05-07T07:20:01;2.53;;;1.33;;
26269;SDS011;15937;50.612;6.656;2023-05-07T07:24:04;3.60;;;1.42;;
26269;SDS011;15937;50.612;6.656;2023-05-07T07:28:06;7.43;;;1.50;;
26269;SDS011;15937;50.612;6.656;2023-05-07T07:32:08;2.85;;;1.33;;
26269;SDS011;15937;50.612;6.656;2023-05-07T07:36:09;6.05;;;1.70;;
26269;SDS011;15937;50.612;6.656;2023-05-07T07:40:11;3.22;;;1.20;;
26269;SDS011;15937;50.612;6.656;2023-05-07T07:44:14;4.07;;;1.80;;
26269;SDS011;15937;50.612;6.656;2023-05-07T07:48:16;3.28;;;2.05;;
26269;SDS011;15937;50.612;6.656;2023-05-07T07:52:18;3.90;;;2.28;;
26269;SDS011;15937;50.612;6.656;2023-05-07T07:56:21;2.97;;;2.03;;
26269;SDS011;15937;50.612;6.656;2023-05-07T08:00:23;4.45;;;2.22;;
26269;SDS011;15937;50.612;6.656;2023-05-07T08:04:25;8.60;;;2.20;;
26269;SDS011;15937;50.612;6.656;2023-05-07T08:08:27;2.10;;;1.88;;
26269;SDS011;15937;50.612;6.656;2023-05-07T08:12:28;8.17;;;2.33;;
26269;SDS011;15937;50.612;6.656;2023-05-07T08:20:34;6.70;;;2.47;;
26269;SDS011;15937;50.612;6.656;2023-05-07T08:24:40;3.47;;;2.53;;
26269;SDS011;15937;50.612;6.656;2023-05-07T08:28:42;5.57;;;2.67;;
26269;SDS011;15937;50.612;6.656;2023-05-07T08:32:45;3.63;;;2.08;;
26269;SDS011;15937;50.612;6.656;2023-05-07T08:36:48;8.90;;;2.50;;
26269;SDS011;15937;50.612;6.656;2023-05-07T08:40:51;3.47;;;1.88;;
26269;SDS011;15937;50.612;6.656;2023-05-07T08:44:54;2.35;;;1.63;;
26269;SDS011;15937;50.612;6.656;2023-05-07T08:49:00;4.13;;;1.73;;
26269;SDS011;15937;50.612;6.656;2023-05-07T08:53:03;2.43;;;1.93;;
26269;SDS011;15937;50.612;6.656;2023-05-07T08:57:07;4.00;;;2.45;;
26269;SDS011;15937;50.612;6.656;2023-05-07T09:01:13;3.83;;;2.08;;
26269;SDS011;15937;50.612;6.656;2023-05-07T09:05:17;4.03;;;2.03;;
26269;SDS011;15937;50.612;6.656;2023-05-07T09:09:21;7.43;;;1.88;;
26269;SDS011;15937;50.612;6.656;2023-05-07T09:13:23;13.80;;;2.03;;
26269;SDS011;15937;50.612;6.656;2023-05-07T09:17:26;3.17;;;2.30;;
26269;SDS011;15937;50.612;6.656;2023-05-07T09:21:29;3.70;;;2.10;;
26269;SDS011;15937;50.612;6.656;2023-05-07T09:25:32;6.80;;;2.27;;
26269;SDS011;15937;50.612;6.656;2023-05-07T09:29:36;6.75;;;2.22;;
26269;SDS011;15937;50.612;6.656;2023-05-07T09:33:38;2.55;;;2.03;;
26269;SDS011;15937;50.612;6.656;2023-05-07T09:37:41;2.58;;;1.50;;
26269;SDS011;15937;50.612;6.656;2023-05-07T09:41:43;2.92;;;2.00;;
26269;SDS011;15937;50.612;6.656;2023-05-07T09:45:46;4.63;;;2.25;;
26269;SDS011;15937;50.612;6.656;2023-05-07T09:49:55;4.88;;;2.00;;
26269;SDS011;15937;50.612;6.656;2023-05-07T09:53:59;4.47;;;2.42;;
26269;SDS011;15937;50.612;6.656;2023-05-07T09:58:04;3.50;;;2.30;;
26269;SDS011;15937;50.612;6.656;2023-05-07T10:02:07;5.03;;;2.28;;
26269;SDS011;15937;50.612;6.656;2023-05-07T10:06:11;6.20;;;2.10;;
26269;SDS011;15937;50.612;6.656;2023-05-07T10:14:17;6.75;;;2.72;;
26269;SDS011;15937;50.612;6.656;2023-05-07T10:18:20;3.67;;;2.38;;
26269;SDS011;15937;50.612;6.656;2023-05-07T10:22:38;3.95;;;2.40;;
26269;SDS011;15937;50.612;6.656;2023-05-07T10:26:46;8.88;;;2.53;;
26269;SDS011;15937;50.612;6.656;2023-05-07T10:35:10;4.60;;;2.72;;
26269;SDS011;15937;50.612;6.656;2023-05-07T10:39:17;5.15;;;2.33;;
26269;SDS011;15937;50.612;6.656;2023-05-07T10:43:20;5.13;;;2.50;;
26269;SDS011;15937;50.612;6.656;2023-05-07T10:51:30;8.25;;;2.75;;
26269;SDS011;15937;50.612;6.656;2023-05-07T10:55:33;6.53;;;2.30;;
26269;SDS011;15937;50.612;6.656;2023-05-07T10:59:36;6.30;;;2.97;;
26269;SDS011;15937;50.612;6.656;2023-05-07T11:08:15;4.63;;;2.17;;
26269;SDS011;15937;50.612;6.656;2023-05-07T11:16:37;4.30;;;1.90;;
26269;SDS011;15937;50.612;6.656;2023-05-07T11:20:45;4.82;;;2.15;;
26269;SDS011;15937;50.612;6.656;2023-05-07T11:24:47;5.18;;;2.10;;
26269;SDS011;15937;50.612;6.656;2023-05-07T11:28:48;8.63;;;2.60;;
26269;SDS011;15937;50.612;6.656;2023-05-07T11:32:51;3.40;;;2.25;;
26269;SDS011;15937;50.612;6.656;2023-05-07T11:36:53;8.10;;;2.53;;
26269;SDS011;15937;50.612;6.656;2023-05-07T11:40:56;4.82;;;2.92;;
26269;SDS011;15937;50.612;6.656;2023-05-07T11:45:05;8.27;;;2.50;;
26269;SDS011;15937;50.612;6.656;2023-05-07T11:49:08;3.15;;;2.22;;
26269;SDS011;15937;50.612;6.656;2023-05-07T11:53:10;5.30;;;2.42;;
26269;SDS011;15937;50.612;6.656;2023-05-07T11:57:14;2.35;;;2.10;;
26269;SDS011;15937;50.612;6.656;2023-05-07T12:01:16;6.13;;;2.40;;
26269;SDS011;15937;50.612;6.656;2023-05-07T12:09:21;4.70;;;1.55;;
26269;SDS011;15937;50.612;6.656;2023-05-07T12:13:35;11.13;;;1.70;;
26269;SDS011;15937;50.612;6.656;2023-05-07T12:17:37;3.58;;;2.17;;
26269;SDS011;15937;50.612;6.656;2023-05-07T12:21:44;4.05;;;2.88;;
26269;SDS011;15937;50.612;6.656;2023-05-07T12:25:46;8.30;;;3.15;;
26269;SDS011;15937;50.612;6.656;2023-05-07T12:29:49;10.35;;;3.38;;
26269;SDS011;15937;50.612;6.656;2023-05-07T12:33:52;5.82;;;2.35;;
26269;SDS011;15937;50.612;6.656;2023-05-07T12:37:58;5.75;;;2.45;;
26269;SDS011;15937;50.612;6.656;2023-05-07T12:42:05;6.07;;;2.80;;
26269;SDS011;15937;50.612;6.656;2023-05-07T12:46:07;6.63;;;2.72;;
26269;SDS011;15937;50.612;6.656;2023-05-07T12:54:12;7.20;;;2.73;;
26269;SDS011;15937;50.612;6.656;2023-05-07T12:58:18;5.20;;;2.57;;
26269;SDS011;15937;50.612;6.656;2023-05-07T13:02:21;10.25;;;3.70;;
26269;SDS011;15937;50.612;6.656;2023-05-07T13:06:34;7.45;;;3.63;;
26269;SDS011;15937;50.612;6.656;2023-05-07T13:10:36;5.20;;;2.83;;
26269;SDS011;15937;50.612;6.656;2023-05-07T13:14:38;2.90;;;2.60;;
26269;SDS011;15937;50.612;6.656;2023-05-07T13:18:41;4.28;;;2.72;;
26269;SDS011;15937;50.612;6.656;2023-05-07T13:22:45;4.90;;;2.90;;
26269;SDS011;15937;50.612;6.656;2023-05-07T13:26:47;10.73;;;3.67;;
26269;SDS011;15937;50.612;6.656;2023-05-07T13:30:48;8.48;;;2.80;;
26269;SDS011;15937;50.612;6.656;2023-05-07T13:34:52;8.13;;;3.05;;
26269;SDS011;15937;50.612;6.656;2023-05-07T13:38:54;5.95;;;3.25;;
26269;SDS011;15937;50.612;6.656;2023-05-07T13:42:59;7.28;;;3.70;;
26269;SDS011;15937;50.612;6.656;2023-05-07T13:47:03;11.30;;;3.25;;
26269;SDS011;15937;50.612;6.656;2023-05-07T13:51:05;5.95;;;3.53;;
26269;SDS011;15937;50.612;6.656;2023-05-07T13:55:07;10.50;;;3.80;;
26269;SDS011;15937;50.612;6.656;2023-05-07T13:59:10;7.50;;;3.60;;
26269;SDS011;15937;50.612;6.656;2023-05-07T14:03:11;4.10;;;3.08;;
26269;SDS011;15937;50.612;6.656;2023-05-07T14:07:13;11.40;;;3.47;;
26269;SDS011;15937;50.612;6.656;2023-05-07T14:11:16;5.57;;;2.83;;
26269;SDS011;15937;50.612;6.656;2023-05-07T14:15:18;4.63;;;2.90;;
26269;SDS011;15937;50.612;6.656;2023-05-07T14:19:19;6.43;;;3.20;;
26269;SDS011;15937;50.612;6.656;2023-05-07T14:23:23;8.95;;;3.55;;
26269;SDS011;15937;50.612;6.656;2023-05-07T14:27:27;7.85;;;3.90;;
26269;SDS011;15937;50.612;6.656;2023-05-07T14:31:29;6.38;;;3.42;;
26269;SDS011;15937;50.612;6.656;2023-05-07T14:35:31;8.40;;;4.70;;
26269;SDS011;15937;50.612;6.656;2023-05-07T14:39:33;6.20;;;3.25;;
26269;SDS011;15937;50.612;6.656;2023-05-07T14:43:35;5.43;;;2.83;;
26269;SDS011;15937;50.612;6.656;2023-05-07T14:47:36;5.13;;;2.90;;
26269;SDS011;15937;50.612;6.656;2023-05-07T14:51:38;3.40;;;3.03;;
26269;SDS011;15937;50.612;6.656;2023-05-07T14:55:40;5.65;;;3.17;;
26269;SDS011;15937;50.612;6.656;2023-05-07T14:59:42;4.30;;;2.63;;
26269;SDS011;15937;50.612;6.656;2023-05-07T15:03:43;4.25;;;2.58;;
26269;SDS011;15937;50.612;6.656;2023-05-07T15:07:46;3.22;;;2.25;;
26269;SDS011;15937;50.612;6.656;2023-05-07T15:11:48;2.40;;;2.20;;
26269;SDS011;15937;50.612;6.656;2023-05-07T15:15:50;4.90;;;3.10;;
26269;SDS011;15937;50.612;6.656;2023-05-07T15:19:52;6.23;;;2.80;;
26269;SDS011;15937;50.612;6.656;2023-05-07T15:23:54;5.50;;;2.97;;
26269;SDS011;15937;50.612;6.656;2023-05-07T15:27:58;6.75;;;2.83;;
26269;SDS011;15937;50.612;6.656;2023-05-07T15:32:00;4.70;;;2.60;;
26269;SDS011;15937;50.612;6.656;2023-05-07T15:36:02;4.77;;;1.83;;
26269;SDS011;15937;50.612;6.656;2023-05-07T15:40:04;5.78;;;2.38;;
26269;SDS011;15937;50.612;6.656;2023-05-07T15:44:07;7.32;;;2.95;;
26269;SDS011;15937;50.612;6.656;2023-05-07T15:48:09;12.47;;;3.03;;
26269;SDS011;15937;50.612;6.656;2023-05-07T15:52:11;6.72;;;3.08;;
26269;SDS011;15937;50.612;6.656;2023-05-07T15:56:15;4.03;;;3.00;;
26269;SDS011;15937;50.612;6.656;2023-05-07T16:00:18;11.57;;;2.80;;
26269;SDS011;15937;50.612;6.656;2023-05-07T16:04:20;5.30;;;2.90;;
26269;SDS011;15937;50.612;6.656;2023-05-07T16:08:22;6.82;;;2.80;;
26269;SDS011;15937;50.612;6.656;2023-05-07T16:12:24;6.35;;;3.03;;
26269;SDS011;15937;50.612;6.656;2023-05-07T16:16:26;6.70;;;2.85;;
26269;SDS011;15937;50.612;6.656;2023-05-07T16:20:30;10.88;;;5.22;;
26269;SDS011;15937;50.612;6.656;2023-05-07T16:24:32;8.57;;;4.43;;
26269;SDS011;15937;50.612;6.656;2023-05-07T16:28:34;15.70;;;5.25;;
26269;SDS011;15937;50.612;6.656;2023-05-07T16:32:36;17.33;;;6.55;;
26269;SDS011;15937;50.612;6.656;2023-05-07T16:36:38;13.37;;;5.93;;
26269;SDS011;15937;50.612;6.656;2023-05-07T16:40:40;8.15;;;5.38;;
26269;SDS011;15937;50.612;6.656;2023-05-07T16:44:42;10.00;;;4.50;;
26269;SDS011;15937;50.612;6.656;2023-05-07T16:48:44;12.00;;;4.17;;
26269;SDS011;15937;50.612;6.656;2023-05-07T16:52:45;5.82;;;3.10;;
26269;SDS011;15937;50.612;6.656;2023-05-07T16:56:47;7.65;;;4.32;;
26269;SDS011;15937;50.612;6.656;2023-05-07T17:00:49;9.15;;;3.75;;
26269;SDS011;15937;50.612;6.656;2023-05-07T17:04:51;8.68;;;3.47;;
26269;SDS011;15937;50.612;6.656;2023-05-07T17:08:53;7.55;;;4.03;;
26269;SDS011;15937;50.612;6.656;2023-05-07T17:12:57;9.13;;;4.13;;
26269;SDS011;15937;50.612;6.656;2023-05-07T17:16:58;14.07;;;5.37;;
26269;SDS011;15937;50.612;6.656;2023-05-07T17:21:00;6.60;;;3.03;;
26269;SDS011;15937;50.612;6.656;2023-05-07T17:25:02;6.15;;;3.50;;
26269;SDS011;15937;50.612;6.656;2023-05-07T17:29:04;6.93;;;2.88;;
26269;SDS011;15937;50.612;6.656;2023-05-07T17:33:06;6.75;;;3.78;;
26269;SDS011;15937;50.612;6.656;2023-05-07T17:37:21;10.07;;;4.22;;
26269;SDS011;15937;50.612;6.656;2023-05-07T17:41:24;9.68;;;4.60;;
26269;SDS011;15937;50.612;6.656;2023-05-07T17:45:25;9.10;;;4.95;;
26269;SDS011;15937;50.612;6.656;2023-05-07T17:49:27;8.30;;;4.77;;
26269;SDS011;15937;50.612;6.656;2023-05-07T17:53:29;12.55;;;5.28;;
26269;SDS011;15937;50.612;6.656;2023-05-07T17:57:31;13.10;;;5.57;;
26269;SDS011;15937;50.612;6.656;2023-05-07T18:01:35;8.98;;;5.32;;
26269;SDS011;15937;50.612;6.656;2023-05-07T18:05:37;13.90;;;5.93;;
26269;SDS011;15937;50.612;6.656;2023-05-07T18:09:40;12.25;;;6.35;;
26269;SDS011;15937;50.612;6.656;2023-05-07T18:13:41;12.02;;;6.00;;
26269;SDS011;15937;50.612;6.656;2023-05-07T18:17:43;10.85;;;4.65;;
26269;SDS011;15937;50.612;6.656;2023-05-07T18:21:45;10.15;;;5.45;;
26269;SDS011;15937;50.612;6.656;2023-05-07T18:25:47;8.85;;;5.35;;
26269;SDS011;15937;50.612;6.656;2023-05-07T18:29:48;7.05;;;4.80;;
26269;SDS011;15937;50.612;6.656;2023-05-07T18:33:50;8.23;;;5.40;;
26269;SDS011;15937;50.612;6.656;2023-05-07T18:37:53;7.35;;;4.53;;
26269;SDS011;15937;50.612;6.656;2023-05-07T18:41:54;6.70;;;4.72;;
26269;SDS011;15937;50.612;6.656;2023-05-07T18:45:57;8.20;;;4.00;;
26269;SDS011;15937;50.612;6.656;2023-05-07T18:49:59;7.20;;;4.55;;
26269;SDS011;15937;50.612;6.656;2023-05-07T18:54:01;7.53;;;4.18;;
26269;SDS011;15937;50.612;6.656;2023-05-07T18:58:03;8.87;;;5.00;;
26269;SDS011;15937;50.612;6.656;2023-05-07T19:02:05;9.75;;;4.45;;
26269;SDS011;15937;50.612;6.656;2023-05-07T19:06:06;6.05;;;4.13;;
26269;SDS011;15937;50.612;6.656;2023-05-07T19:10:08;6.57;;;4.38;;
26269;SDS011;15937;50.612;6.656;2023-05-07T19:14:10;9.25;;;5.32;;
26269;SDS011;15937;50.612;6.656;2023-05-07T19:18:12;9.63;;;5.03;;
26269;SDS011;15937;50.612;6.656;2023-05-07T19:22:14;12.23;;;5.82;;
26269;SDS011;15937;50.612;6.656;2023-05-07T19:26:16;7.70;;;5.50;;
26269;SDS011;15937;50.612;6.656;2023-05-07T19:30:19;9.05;;;5.18;;
26269;SDS011;15937;50.612;6.656;2023-05-07T19:34:21;10.98;;;5.97;;
26269;SDS011;15937;50.612;6.656;2023-05-07T19:38:24;11.82;;;5.55;;
26269;SDS011;15937;50.612;6.656;2023-05-07T19:42:26;8.52;;;5.72;;
26269;SDS011;15937;50.612;6.656;2023-05-07T19:46:28;6.50;;;5.30;;
26269;SDS011;15937;50.612;6.656;2023-05-07T19:50:29;7.60;;;5.35;;
26269;SDS011;15937;50.612;6.656;2023-05-07T19:54:31;13.38;;;6.05;;
26269;SDS011;15937;50.612;6.656;2023-05-07T19:58:33;10.73;;;5.55;;
26269;SDS011;15937;50.612;6.656;2023-05-07T20:02:35;12.63;;;6.50;;
26269;SDS011;15937;50.612;6.656;2023-05-07T20:06:37;9.10;;;5.63;;
26269;SDS011;15937;50.612;6.656;2023-05-07T20:10:38;12.07;;;5.75;;
26269;SDS011;15937;50.612;6.656;2023-05-07T20:14:41;11.27;;;6.38;;
26269;SDS011;15937;50.612;6.656;2023-05-07T20:18:42;13.00;;;5.45;;
26269;SDS011;15937;50.612;6.656;2023-05-07T20:22:44;10.85;;;6.13;;
26269;SDS011;15937;50.612;6.656;2023-05-07T20:26:46;11.93;;;7.57;;
26269;SDS011;15937;50.612;6.656;2023-05-07T20:30:48;8.27;;;5.95;;
26269;SDS011;15937;50.612;6.656;2023-05-07T20:34:49;12.68;;;7.28;;
26269;SDS011;15937;50.612;6.656;2023-05-07T20:38:52;17.08;;;8.07;;
26269;SDS011;15937;50.612;6.656;2023-05-07T20:42:54;17.00;;;7.82;;
26269;SDS011;15937;50.612;6.656;2023-05-07T20:46:56;9.10;;;7.00;;
26269;SDS011;15937;50.612;6.656;2023-05-07T20:50:58;12.98;;;7.35;;
26269;SDS011;15937;50.612;6.656;2023-05-07T20:55:01;11.65;;;6.43;;
26269;SDS011;15937;50.612;6.656;2023-05-07T20:59:03;9.18;;;6.80;;
26269;SDS011;15937;50.612;6.656;2023-05-07T21:03:05;9.40;;;6.53;;
26269;SDS011;15937;50.612;6.656;2023-05-07T21:07:07;12.82;;;7.28;;
26269;SDS011;15937;50.612;6.656;2023-05-07T21:11:09;10.02;;;7.32;;
26269;SDS011;15937;50.612;6.656;2023-05-07T21:15:13;11.95;;;6.65;;
26269;SDS011;15937;50.612;6.656;2023-05-07T21:19:14;15.45;;;6.63;;
26269;SDS011;15937;50.612;6.656;2023-05-07T21:23:16;13.77;;;7.85;;
26269;SDS011;15937;50.612;6.656;2023-05-07T21:27:18;9.47;;;6.70;;
26269;SDS011;15937;50.612;6.656;2023-05-07T21:31:20;10.43;;;7.00;;
26269;SDS011;15937;50.612;6.656;2023-05-07T21:35:22;10.07;;;6.70;;
26269;SDS011;15937;50.612;6.656;2023-05-07T21:39:24;11.63;;;7.25;;
26269;SDS011;15937;50.612;6.656;2023-05-07T21:43:25;16.25;;;7.85;;
26269;SDS011;15937;50.612;6.656;2023-05-07T21:47:27;13.82;;;8.23;;
26269;SDS011;15937;50.612;6.656;2023-05-07T21:51:29;12.67;;;8.27;;
26269;SDS011;15937;50.612;6.656;2023-05-07T21:55:34;10.05;;;6.90;;
26269;SDS011;15937;50.612;6.656;2023-05-07T21:59:36;14.95;;;6.07;;
26269;SDS011;15937;50.612;6.656;2023-05-07T22:03:38;9.70;;;6.55;;
26269;SDS011;15937;50.612;6.656;2023-05-07T22:07:41;8.77;;;6.40;;
26269;SDS011;15937;50.612;6.656;2023-05-07T22:11:43;16.92;;;7.75;;
26269;SDS011;15937;50.612;6.656;2023-05-07T22:15:44;10.80;;;6.47;;
26269;SDS011;15937;50.612;6.656;2023-05-07T22:19:57;7.35;;;6.05;;
26269;SDS011;15937;50.612;6.656;2023-05-07T22:23:59;12.55;;;6.90;;
26269;SDS011;15937;50.612;6.656;2023-05-07T22:28:01;9.20;;;6.72;;
26269;SDS011;15937;50.612;6.656;2023-05-07T22:32:03;8.65;;;6.60;;
26269;SDS011;15937;50.612;6.656;2023-05-07T22:36:05;5.33;;;3.43;;
26269;SDS011;15937;50.612;6.656;2023-05-07T22:40:07;7.63;;;3.13;;
26269;SDS011;15937;50.612;6.656;2023-05-07T22:44:10;4.97;;;2.75;;
26269;SDS011;15937;50.612;6.656;2023-05-07T22:48:12;6.55;;;4.05;;
26269;SDS011;15937;50.612;6.656;2023-05-07T22:52:14;4.88;;;3.78;;
26269;SDS011;15937;50.612;6.656;2023-05-07T22:56:16;6.32;;;4.32;;
26269;SDS011;15937;50.612;6.656;2023-05-07T23:00:18;4.30;;;3.83;;
26269;SDS011;15937;50.612;6.656;2023-05-07T23:04:20;4.53;;;3.25;;
26269;SDS011;15937;50.612;6.656;2023-05-07T23:08:22;6.57;;;3.80;;
26269;SDS011;15937;50.612;6.656;2023-05-07T23:12:24;6.35;;;4.53;;
26269;SDS011;15937;50.612;6.656;2023-05-07T23:16:26;8.00;;;4.50;;
26269;SDS011;15937;50.612;6.656;2023-05-07T23:24:31;11.33;;;6.30;;
26269;SDS011;15937;50.612;6.656;2023-05-07T23:28:34;10.13;;;6.60;;
26269;SDS011;15937;50.612;6.656;2023-05-07T23:32:36;14.60;;;8.93;;
26269;SDS011;15937;50.612;6.656;2023-05-07T23:36:38;14.05;;;8.65;;
26269;SDS011;15937;50.612;6.656;2023-05-07T23:40:39;17.20;;;8.98;;
26269;SDS011;15937;50.612;6.656;2023-05-07T23:44:41;17.15;;;8.23;;
26269;SDS011;15937;50.612;6.656;2023-05-07T23:48:43;17.33;;;9.60;;
26269;SDS011;15937;50.612;6.656;2023-05-07T23:52:45;21.45;;;10.07;;
26269;SDS011;15937;50.612;6.656;2023-05-07T23:56:47;16.05;;;8.85;;
